sensor_id;sensor_type;location;lat;lon;timestamp;P1;durP1;ratioP1;P2;durP2;ratioP2
66400;SDS011;53211;45.040;38.788;2022-11-12T00:00:50;532.85;;;244.20;;
66400;SDS011;53211;45.040;38.788;2022-11-12T00:03:35;533.83;;;245.80;;
66400;SDS011;53211;45.040;38.788;2022-11-12T00:06:20;528.60;;;242.47;;
66400;SDS011;53211;45.040;38.788;2022-11-12T00:09:04;527.80;;;238.60;;
66400;SDS011;53211;45.040;38.788;2022-11-12T00:11:49;527.00;;;243.15;;
66400;SDS011;53211;45.040;38.788;2022-11-12T00:14:33;529.95;;;246.25;;
66400;SDS011;53211;45.040;38.788;2022-11-12T00:17:17;518.40;;;236.00;;
66400;SDS011;53211;45.040;38.788;2022-11-12T00:20:02;522.90;;;240.50;;
66400;SDS011;53211;45.040;38.788;2022-11-12T00:22:46;522.70;;;242.00;;
66400;SDS011;53211;45.040;38.788;2022-11-12T00:25:31;525.55;;;245.82;;
66400;SDS011;53211;45.040;38.788;2022-11-12T00:28:15;524.72;;;242.00;;
66400;SDS011;53211;45.040;38.788;2022-11-12T00:31:05;527.33;;;244.77;;
66400;SDS011;53211;45.040;38.788;2022-11-12T00:33:50;526.58;;;244.35;;
66400;SDS011;53211;45.040;38.788;2022-11-12T00:36:35;528.95;;;247.20;;
66400;SDS011;53211;45.040;38.788;2022-11-12T00:39:19;526.43;;;243.43;;
66400;SDS011;53211;45.040;38.788;2022-11-12T00:42:03;524.65;;;244.35;;
66400;SDS011;53211;45.040;38.788;2022-11-12T00:44:48;525.38;;;240.70;;
66400;SDS011;53211;45.040;38.788;2022-11-12T00:47:32;529.83;;;237.37;;
66400;SDS011;53211;45.040;38.788;2022-11-12T00:50:17;539.58;;;245.02;;
66400;SDS011;53211;45.040;38.788;2022-11-12T00:53:01;537.53;;;245.15;;
66400;SDS011;53211;45.040;38.788;2022-11-12T00:55:46;535.00;;;245.20;;
66400;SDS011;53211;45.040;38.788;2022-11-12T00:58:31;535.67;;;240.10;;
66400;SDS011;53211;45.040;38.788;2022-11-12T01:01:18;539.35;;;244.10;;
66400;SDS011;53211;45.040;38.788;2022-11-12T01:04:03;531.05;;;238.25;;
66400;SDS011;53211;45.040;38.788;2022-11-12T01:06:48;538.50;;;245.50;;
66400;SDS011;53211;45.040;38.788;2022-11-12T01:09:32;532.20;;;246.05;;
66400;SDS011;53211;45.040;38.788;2022-11-12T01:12:16;542.40;;;231.60;;
66400;SDS011;53211;45.040;38.788;2022-11-12T01:15:01;549.08;;;231.85;;
66400;SDS011;53211;45.040;38.788;2022-11-12T01:17:46;547.07;;;235.00;;
66400;SDS011;53211;45.040;38.788;2022-11-12T01:20:30;547.05;;;235.40;;
66400;SDS011;53211;45.040;38.788;2022-11-12T01:23:15;552.35;;;233.95;;
66400;SDS011;53211;45.040;38.788;2022-11-12T01:26:03;550.45;;;233.00;;
66400;SDS011;53211;45.040;38.788;2022-11-12T01:28:48;550.70;;;227.20;;
66400;SDS011;53211;45.040;38.788;2022-11-12T01:31:34;551.45;;;232.20;;
66400;SDS011;53211;45.040;38.788;2022-11-12T01:34:20;546.35;;;223.57;;
66400;SDS011;53211;45.040;38.788;2022-11-12T01:37:04;543.28;;;239.25;;
66400;SDS011;53211;45.040;38.788;2022-11-12T01:39:48;546.55;;;239.00;;
66400;SDS011;53211;45.040;38.788;2022-11-12T01:42:33;547.00;;;230.90;;
66400;SDS011;53211;45.040;38.788;2022-11-12T01:45:17;536.00;;;246.48;;
66400;SDS011;53211;45.040;38.788;2022-11-12T01:48:02;526.67;;;246.73;;
66400;SDS011;53211;45.040;38.788;2022-11-12T01:50:47;529.75;;;247.30;;
66400;SDS011;53211;45.040;38.788;2022-11-12T01:53:33;543.55;;;240.50;;
66400;SDS011;53211;45.040;38.788;2022-11-12T01:56:22;515.90;;;237.57;;
66400;SDS011;53211;45.040;38.788;2022-11-12T01:59:11;527.63;;;243.02;;
66400;SDS011;53211;45.040;38.788;2022-11-12T02:01:59;522.15;;;243.85;;
66400;SDS011;53211;45.040;38.788;2022-11-12T02:04:44;520.65;;;243.35;;
66400;SDS011;53211;45.040;38.788;2022-11-12T02:07:29;525.05;;;244.80;;
66400;SDS011;53211;45.040;38.788;2022-11-12T02:10:15;510.77;;;226.33;;
66400;SDS011;53211;45.040;38.788;2022-11-12T02:12:59;545.47;;;235.85;;
66400;SDS011;53211;45.040;38.788;2022-11-12T02:16:03;518.00;;;196.30;;
66400;SDS011;53211;45.040;38.788;2022-11-12T02:18:49;526.60;;;244.27;;
66400;SDS011;53211;45.040;38.788;2022-11-12T02:21:33;509.05;;;225.13;;
66400;SDS011;53211;45.040;38.788;2022-11-12T02:27:02;491.10;;;186.15;;
66400;SDS011;53211;45.040;38.788;2022-11-12T02:29:48;516.75;;;236.95;;
66400;SDS011;53211;45.040;38.788;2022-11-12T02:32:32;525.15;;;246.80;;
66400;SDS011;53211;45.040;38.788;2022-11-12T02:35:17;518.78;;;241.50;;
66400;SDS011;53211;45.040;38.788;2022-11-12T02:38:01;516.38;;;236.70;;
66400;SDS011;53211;45.040;38.788;2022-11-12T02:40:46;519.47;;;236.93;;
66400;SDS011;53211;45.040;38.788;2022-11-12T02:43:30;525.30;;;243.20;;
66400;SDS011;53211;45.040;38.788;2022-11-12T02:46:14;539.40;;;237.35;;
66400;SDS011;53211;45.040;38.788;2022-11-12T02:51:44;469.40;;;132.90;;
66400;SDS011;53211;45.040;38.788;2022-11-12T02:54:28;467.40;;;122.95;;
66400;SDS011;53211;45.040;38.788;2022-11-12T02:57:12;468.23;;;125.30;;
66400;SDS011;53211;45.040;38.788;2022-11-12T02:59:57;464.20;;;118.47;;
66400;SDS011;53211;45.040;38.788;2022-11-12T03:05:26;475.35;;;136.57;;
66400;SDS011;53211;45.040;38.788;2022-11-12T03:08:12;469.70;;;130.80;;
66400;SDS011;53211;45.040;38.788;2022-11-12T03:13:41;470.27;;;133.95;;
66400;SDS011;53211;45.040;38.788;2022-11-12T03:16:25;476.05;;;141.13;;
66400;SDS011;53211;45.040;38.788;2022-11-12T03:19:10;486.10;;;165.40;;
66400;SDS011;53211;45.040;38.788;2022-11-12T03:21:54;482.75;;;159.88;;
66400;SDS011;53211;45.040;38.788;2022-11-12T03:27:23;497.50;;;198.40;;
66400;SDS011;53211;45.040;38.788;2022-11-12T03:30:07;491.35;;;180.25;;
66400;SDS011;53211;45.040;38.788;2022-11-12T03:32:52;490.65;;;177.95;;
66400;SDS011;53211;45.040;38.788;2022-11-12T03:35:36;487.55;;;174.70;;
66400;SDS011;53211;45.040;38.788;2022-11-12T03:38:21;493.80;;;189.73;;
66400;SDS011;53211;45.040;38.788;2022-11-12T03:41:06;487.00;;;171.40;;
66400;SDS011;53211;45.040;38.788;2022-11-12T03:43:50;488.33;;;174.10;;
66400;SDS011;53211;45.040;38.788;2022-11-12T03:46:34;488.90;;;181.00;;
66400;SDS011;53211;45.040;38.788;2022-11-12T03:49:19;492.30;;;186.68;;
66400;SDS011;53211;45.040;38.788;2022-11-12T03:52:03;491.87;;;186.47;;
66400;SDS011;53211;45.040;38.788;2022-11-12T03:54:47;484.73;;;167.23;;
66400;SDS011;53211;45.040;38.788;2022-11-12T03:57:32;489.80;;;175.20;;
66400;SDS011;53211;45.040;38.788;2022-11-12T04:00:17;481.83;;;160.52;;
66400;SDS011;53211;45.040;38.788;2022-11-12T04:03:02;494.00;;;190.50;;
66400;SDS011;53211;45.040;38.788;2022-11-12T04:05:47;490.10;;;181.90;;
66400;SDS011;53211;45.040;38.788;2022-11-12T04:08:50;508.10;;;220.30;;
66400;SDS011;53211;45.040;38.788;2022-11-12T04:11:34;489.30;;;179.50;;
66400;SDS011;53211;45.040;38.788;2022-11-12T04:14:18;497.33;;;194.40;;
66400;SDS011;53211;45.040;38.788;2022-11-12T04:17:02;480.90;;;158.35;;
66400;SDS011;53211;45.040;38.788;2022-11-12T04:20:07;488.48;;;171.95;;
66400;SDS011;53211;45.040;38.788;2022-11-12T04:23:10;520.55;;;240.50;;
66400;SDS011;53211;45.040;38.788;2022-11-12T04:25:54;515.50;;;236.88;;
66400;SDS011;53211;45.040;38.788;2022-11-12T04:28:57;512.07;;;231.93;;
66400;SDS011;53211;45.040;38.788;2022-11-12T04:32:01;511.20;;;231.05;;
66400;SDS011;53211;45.040;38.788;2022-11-12T04:34:45;597.97;;;179.83;;
66400;SDS011;53211;45.040;38.788;2022-11-12T04:37:30;489.60;;;177.80;;
66400;SDS011;53211;45.040;38.788;2022-11-12T04:40:27;489.10;;;179.40;;
66400;SDS011;53211;45.040;38.788;2022-11-12T04:43:30;491.45;;;185.85;;
66400;SDS011;53211;45.040;38.788;2022-11-12T04:46:33;490.30;;;180.90;;
66400;SDS011;53211;45.040;38.788;2022-11-12T04:49:18;493.20;;;185.60;;
66400;SDS011;53211;45.040;38.788;2022-11-12T04:52:02;496.80;;;197.63;;
66400;SDS011;53211;45.040;38.788;2022-11-12T04:54:49;493.30;;;187.15;;
66400;SDS011;53211;45.040;38.788;2022-11-12T04:57:35;493.15;;;192.05;;
66400;SDS011;53211;45.040;38.788;2022-11-12T05:00:20;493.93;;;196.60;;
66400;SDS011;53211;45.040;38.788;2022-11-12T05:03:04;492.55;;;185.05;;
66400;SDS011;53211;45.040;38.788;2022-11-12T05:05:48;491.30;;;183.88;;
66400;SDS011;53211;45.040;38.788;2022-11-12T05:08:33;490.30;;;181.05;;
66400;SDS011;53211;45.040;38.788;2022-11-12T05:11:17;497.10;;;197.52;;
66400;SDS011;53211;45.040;38.788;2022-11-12T05:14:01;497.50;;;203.88;;
66400;SDS011;53211;45.040;38.788;2022-11-12T05:16:46;504.73;;;216.30;;
66400;SDS011;53211;45.040;38.788;2022-11-12T05:19:30;492.15;;;182.75;;
66400;SDS011;53211;45.040;38.788;2022-11-12T05:22:14;562.90;;;216.30;;
66400;SDS011;53211;45.040;38.788;2022-11-12T05:24:59;561.70;;;218.73;;
66400;SDS011;53211;45.040;38.788;2022-11-12T05:27:44;558.15;;;221.10;;
66400;SDS011;53211;45.040;38.788;2022-11-12T05:30:28;552.92;;;224.68;;
66400;SDS011;53211;45.040;38.788;2022-11-12T05:33:12;560.83;;;221.05;;
66400;SDS011;53211;45.040;38.788;2022-11-12T05:35:57;565.05;;;218.20;;
66400;SDS011;53211;45.040;38.788;2022-11-12T05:38:43;565.15;;;217.80;;
66400;SDS011;53211;45.040;38.788;2022-11-12T05:41:27;562.73;;;216.73;;
66400;SDS011;53211;45.040;38.788;2022-11-12T05:44:13;563.33;;;216.67;;
66400;SDS011;53211;45.040;38.788;2022-11-12T05:47:02;562.70;;;215.60;;
66400;SDS011;53211;45.040;38.788;2022-11-12T05:49:46;565.30;;;218.07;;
66400;SDS011;53211;45.040;38.788;2022-11-12T05:52:30;562.63;;;218.40;;
66400;SDS011;53211;45.040;38.788;2022-11-12T05:55:15;562.30;;;219.20;;
66400;SDS011;53211;45.040;38.788;2022-11-12T05:58:02;570.10;;;215.15;;
66400;SDS011;53211;45.040;38.788;2022-11-12T06:00:47;570.80;;;214.27;;
66400;SDS011;53211;45.040;38.788;2022-11-12T06:03:32;561.85;;;225.30;;
66400;SDS011;53211;45.040;38.788;2022-11-12T06:06:16;567.30;;;228.43;;
66400;SDS011;53211;45.040;38.788;2022-11-12T06:09:00;563.83;;;218.13;;
66400;SDS011;53211;45.040;38.788;2022-11-12T06:11:45;561.22;;;227.88;;
66400;SDS011;53211;45.040;38.788;2022-11-12T06:14:30;554.80;;;230.25;;
66400;SDS011;53211;45.040;38.788;2022-11-12T06:17:15;566.25;;;221.85;;
66400;SDS011;53211;45.040;38.788;2022-11-12T06:20:08;573.25;;;222.60;;
66400;SDS011;53211;45.040;38.788;2022-11-12T06:26:49;561.25;;;236.40;;
66400;SDS011;53211;45.040;38.788;2022-11-12T06:29:33;560.00;;;245.75;;
66400;SDS011;53211;45.040;38.788;2022-11-12T06:32:17;553.95;;;240.93;;
66400;SDS011;53211;45.040;38.788;2022-11-12T06:35:03;546.25;;;248.05;;
66400;SDS011;53211;45.040;38.788;2022-11-12T06:37:48;556.75;;;243.10;;
66400;SDS011;53211;45.040;38.788;2022-11-12T06:40:33;527.83;;;249.17;;
66400;SDS011;53211;45.040;38.788;2022-11-12T06:43:17;545.65;;;257.55;;
66400;SDS011;53211;45.040;38.788;2022-11-12T06:46:06;527.38;;;244.73;;
66400;SDS011;53211;45.040;38.788;2022-11-12T06:48:55;538.53;;;247.05;;
66400;SDS011;53211;45.040;38.788;2022-11-12T06:51:39;537.95;;;257.20;;
66400;SDS011;53211;45.040;38.788;2022-11-12T06:54:24;558.20;;;243.65;;
66400;SDS011;53211;45.040;38.788;2022-11-12T06:57:09;560.70;;;238.90;;
66400;SDS011;53211;45.040;38.788;2022-11-12T06:59:54;558.75;;;240.20;;
66400;SDS011;53211;45.040;38.788;2022-11-12T07:02:38;560.05;;;245.35;;
66400;SDS011;53211;45.040;38.788;2022-11-12T07:05:23;556.85;;;242.45;;
66400;SDS011;53211;45.040;38.788;2022-11-12T07:08:07;558.03;;;241.75;;
66400;SDS011;53211;45.040;38.788;2022-11-12T07:10:55;555.65;;;237.10;;
66400;SDS011;53211;45.040;38.788;2022-11-12T07:13:40;561.75;;;235.65;;
66400;SDS011;53211;45.040;38.788;2022-11-12T07:16:27;565.23;;;239.63;;
66400;SDS011;53211;45.040;38.788;2022-11-12T07:19:11;566.45;;;232.75;;
66400;SDS011;53211;45.040;38.788;2022-11-12T07:21:55;568.10;;;230.97;;
66400;SDS011;53211;45.040;38.788;2022-11-12T07:24:40;569.40;;;232.00;;
66400;SDS011;53211;45.040;38.788;2022-11-12T07:27:27;571.80;;;226.20;;
66400;SDS011;53211;45.040;38.788;2022-11-12T07:30:13;572.20;;;226.45;;
66400;SDS011;53211;45.040;38.788;2022-11-12T07:32:57;517.25;;;225.35;;
66400;SDS011;53211;45.040;38.788;2022-11-12T07:35:42;520.85;;;227.00;;
66400;SDS011;53211;45.040;38.788;2022-11-12T07:38:26;519.43;;;230.27;;
66400;SDS011;53211;45.040;38.788;2022-11-12T07:41:12;532.25;;;247.35;;
66400;SDS011;53211;45.040;38.788;2022-11-12T07:43:58;518.53;;;226.13;;
66400;SDS011;53211;45.040;38.788;2022-11-12T07:46:42;509.90;;;207.20;;
66400;SDS011;53211;45.040;38.788;2022-11-12T07:49:27;510.57;;;211.30;;
66400;SDS011;53211;45.040;38.788;2022-11-12T07:52:11;570.13;;;235.25;;
66400;SDS011;53211;45.040;38.788;2022-11-12T07:54:56;565.10;;;238.83;;
66400;SDS011;53211;45.040;38.788;2022-11-12T07:57:40;568.80;;;237.20;;
66400;SDS011;53211;45.040;38.788;2022-11-12T08:00:24;566.45;;;237.90;;
66400;SDS011;53211;45.040;38.788;2022-11-12T08:03:09;561.00;;;241.10;;
66400;SDS011;53211;45.040;38.788;2022-11-12T08:05:54;562.30;;;244.55;;
66400;SDS011;53211;45.040;38.788;2022-11-12T08:08:38;556.05;;;242.40;;
66400;SDS011;53211;45.040;38.788;2022-11-12T08:11:22;550.90;;;247.95;;
66400;SDS011;53211;45.040;38.788;2022-11-12T08:14:07;548.53;;;253.13;;
66400;SDS011;53211;45.040;38.788;2022-11-12T08:16:51;570.53;;;233.30;;
66400;SDS011;53211;45.040;38.788;2022-11-12T08:19:36;571.67;;;232.37;;
66400;SDS011;53211;45.040;38.788;2022-11-12T08:22:20;568.13;;;237.63;;
66400;SDS011;53211;45.040;38.788;2022-11-12T08:25:04;567.65;;;237.40;;
66400;SDS011;53211;45.040;38.788;2022-11-12T08:27:50;567.70;;;236.65;;
66400;SDS011;53211;45.040;38.788;2022-11-12T08:30:39;569.07;;;234.80;;
66400;SDS011;53211;45.040;38.788;2022-11-12T08:33:24;574.57;;;231.77;;
66400;SDS011;53211;45.040;38.788;2022-11-12T08:36:09;569.60;;;224.40;;
66400;SDS011;53211;45.040;38.788;2022-11-12T08:38:56;576.30;;;231.15;;
66400;SDS011;53211;45.040;38.788;2022-11-12T08:41:40;572.80;;;231.80;;
66400;SDS011;53211;45.040;38.788;2022-11-12T08:44:24;572.05;;;232.80;;
66400;SDS011;53211;45.040;38.788;2022-11-12T08:47:09;564.20;;;231.15;;
66400;SDS011;53211;45.040;38.788;2022-11-12T08:49:53;570.95;;;231.20;;
66400;SDS011;53211;45.040;38.788;2022-11-12T08:52:37;575.40;;;230.55;;
66400;SDS011;53211;45.040;38.788;2022-11-12T08:55:21;603.45;;;195.00;;
66400;SDS011;53211;45.040;38.788;2022-11-12T08:58:06;618.60;;;183.60;;
66400;SDS011;53211;45.040;38.788;2022-11-12T09:00:51;610.90;;;185.25;;
66400;SDS011;53211;45.040;38.788;2022-11-12T09:03:36;588.77;;;206.23;;
66400;SDS011;53211;45.040;38.788;2022-11-12T09:06:20;608.85;;;190.05;;
66400;SDS011;53211;45.040;38.788;2022-11-12T09:09:05;620.85;;;181.90;;
66400;SDS011;53211;45.040;38.788;2022-11-12T09:11:49;615.10;;;182.40;;
66400;SDS011;53211;45.040;38.788;2022-11-12T09:14:34;616.00;;;186.55;;
66400;SDS011;53211;45.040;38.788;2022-11-12T09:17:18;624.40;;;181.00;;
66400;SDS011;53211;45.040;38.788;2022-11-12T09:20:02;623.30;;;180.55;;
66400;SDS011;53211;45.040;38.788;2022-11-12T09:22:47;628.77;;;176.67;;
66400;SDS011;53211;45.040;38.788;2022-11-12T09:25:31;638.60;;;170.40;;
66400;SDS011;53211;45.040;38.788;2022-11-12T09:28:17;625.80;;;179.40;;
66400;SDS011;53211;45.040;38.788;2022-11-12T09:31:02;633.70;;;169.35;;
66400;SDS011;53211;45.040;38.788;2022-11-12T09:33:46;627.50;;;175.00;;
66400;SDS011;53211;45.040;38.788;2022-11-12T09:36:30;622.60;;;178.45;;
66400;SDS011;53211;45.040;38.788;2022-11-12T09:39:15;635.87;;;176.20;;
66400;SDS011;53211;45.040;38.788;2022-11-12T09:42:05;622.15;;;185.05;;
66400;SDS011;53211;45.040;38.788;2022-11-12T09:44:58;623.75;;;182.60;;
66400;SDS011;53211;45.040;38.788;2022-11-12T09:47:52;635.75;;;176.18;;
66400;SDS011;53211;45.040;38.788;2022-11-12T09:50:59;627.20;;;180.80;;
66400;SDS011;53211;45.040;38.788;2022-11-12T09:53:52;625.55;;;180.85;;
66400;SDS011;53211;45.040;38.788;2022-11-12T09:56:39;626.30;;;179.57;;
66400;SDS011;53211;45.040;38.788;2022-11-12T09:59:33;626.40;;;178.75;;
66400;SDS011;53211;45.040;38.788;2022-11-12T10:11:34;624.25;;;180.15;;
66400;SDS011;53211;45.040;38.788;2022-11-12T10:15:03;625.60;;;181.65;;
66400;SDS011;53211;45.040;38.788;2022-11-12T10:18:41;628.15;;;183.85;;
66400;SDS011;53211;45.040;38.788;2022-11-12T10:21:56;623.15;;;181.90;;
66400;SDS011;53211;45.040;38.788;2022-11-12T10:24:41;623.90;;;181.65;;
66400;SDS011;53211;45.040;38.788;2022-11-12T10:27:27;622.45;;;184.30;;
66400;SDS011;53211;45.040;38.788;2022-11-12T10:30:20;624.97;;;184.67;;
66400;SDS011;53211;45.040;38.788;2022-11-12T10:33:12;622.80;;;184.85;;
66400;SDS011;53211;45.040;38.788;2022-11-12T10:36:07;621.30;;;182.00;;
66400;SDS011;53211;45.040;38.788;2022-11-12T10:39:06;623.00;;;184.25;;
66400;SDS011;53211;45.040;38.788;2022-11-12T10:42:00;621.00;;;183.30;;
66400;SDS011;53211;45.040;38.788;2022-11-12T10:44:46;615.77;;;179.70;;
66400;SDS011;53211;45.040;38.788;2022-11-12T10:47:32;622.35;;;187.15;;
66400;SDS011;53211;45.040;38.788;2022-11-12T10:53:12;629.00;;;179.00;;
66400;SDS011;53211;45.040;38.788;2022-11-12T10:56:00;626.50;;;180.20;;
66400;SDS011;53211;45.040;38.788;2022-11-12T11:01:57;628.33;;;180.20;;
66400;SDS011;53211;45.040;38.788;2022-11-12T11:04:43;632.30;;;177.80;;
66400;SDS011;53211;45.040;38.788;2022-11-12T11:07:28;635.60;;;175.60;;
66400;SDS011;53211;45.040;38.788;2022-11-12T11:10:22;627.70;;;181.45;;
66400;SDS011;53211;45.040;38.788;2022-11-12T11:13:21;623.60;;;180.30;;
66400;SDS011;53211;45.040;38.788;2022-11-12T11:16:11;626.35;;;179.85;;
66400;SDS011;53211;45.040;38.788;2022-11-12T11:19:04;644.10;;;172.85;;
66400;SDS011;53211;45.040;38.788;2022-11-12T11:21:56;640.35;;;173.85;;
66400;SDS011;53211;45.040;38.788;2022-11-12T11:24:50;615.05;;;186.50;;
66400;SDS011;53211;45.040;38.788;2022-11-12T11:27:41;615.00;;;185.20;;
66400;SDS011;53211;45.040;38.788;2022-11-12T11:30:44;617.85;;;186.10;;
66400;SDS011;53211;45.040;38.788;2022-11-12T11:34:01;625.85;;;182.25;;
66400;SDS011;53211;45.040;38.788;2022-11-12T11:51:41;618.53;;;185.57;;
66400;SDS011;53211;45.040;38.788;2022-11-12T11:57:54;614.47;;;186.70;;
66400;SDS011;53211;45.040;38.788;2022-11-12T12:00:58;612.70;;;187.40;;
66400;SDS011;53211;45.040;38.788;2022-11-12T12:06:56;621.85;;;184.80;;
66400;SDS011;53211;45.040;38.788;2022-11-12T12:19:03;615.10;;;189.40;;
66400;SDS011;53211;45.040;38.788;2022-11-12T12:21:59;628.70;;;181.10;;
66400;SDS011;53211;45.040;38.788;2022-11-12T12:27:40;622.50;;;181.93;;
66400;SDS011;53211;45.040;38.788;2022-11-12T12:30:34;627.10;;;180.95;;
66400;SDS011;53211;45.040;38.788;2022-11-12T12:33:32;618.80;;;185.40;;
66400;SDS011;53211;45.040;38.788;2022-11-12T12:36:36;610.35;;;194.60;;
66400;SDS011;53211;45.040;38.788;2022-11-12T12:39:24;605.65;;;195.45;;
66400;SDS011;53211;45.040;38.788;2022-11-12T12:42:16;620.20;;;184.40;;
66400;SDS011;53211;45.040;38.788;2022-11-12T12:48:29;608.95;;;201.75;;
66400;SDS011;53211;45.040;38.788;2022-11-12T12:51:15;607.95;;;197.35;;
66400;SDS011;53211;45.040;38.788;2022-11-12T12:54:01;606.70;;;197.85;;
66400;SDS011;53211;45.040;38.788;2022-11-12T12:56:46;610.90;;;203.40;;
66400;SDS011;53211;45.040;38.788;2022-11-12T12:59:31;610.77;;;199.47;;
66400;SDS011;53211;45.040;38.788;2022-11-12T13:02:25;610.13;;;199.13;;
66400;SDS011;53211;45.040;38.788;2022-11-12T13:05:22;606.95;;;197.05;;
66400;SDS011;53211;45.040;38.788;2022-11-12T13:08:10;604.97;;;200.63;;
66400;SDS011;53211;45.040;38.788;2022-11-12T13:10:57;598.95;;;198.90;;
66400;SDS011;53211;45.040;38.788;2022-11-12T13:13:42;603.55;;;201.10;;
66400;SDS011;53211;45.040;38.788;2022-11-12T13:25:26;604.20;;;200.60;;
66400;SDS011;53211;45.040;38.788;2022-11-12T13:28:11;601.25;;;200.05;;
66400;SDS011;53211;45.040;38.788;2022-11-12T13:30:57;601.47;;;202.07;;
66400;SDS011;53211;45.040;38.788;2022-11-12T13:33:43;599.65;;;202.95;;
66400;SDS011;53211;45.040;38.788;2022-11-12T13:36:27;603.40;;;200.30;;
66400;SDS011;53211;45.040;38.788;2022-11-12T13:39:15;604.75;;;199.45;;
66400;SDS011;53211;45.040;38.788;2022-11-12T13:42:10;603.73;;;198.93;;
66400;SDS011;53211;45.040;38.788;2022-11-12T13:45:20;603.70;;;199.75;;
66400;SDS011;53211;45.040;38.788;2022-11-12T13:51:49;604.35;;;196.65;;
66400;SDS011;53211;45.040;38.788;2022-11-12T13:54:36;602.15;;;202.65;;
66400;SDS011;53211;45.040;38.788;2022-11-12T13:57:27;594.10;;;199.65;;
66400;SDS011;53211;45.040;38.788;2022-11-12T14:03:12;595.15;;;200.00;;
66400;SDS011;53211;45.040;38.788;2022-11-12T14:06:04;605.75;;;205.35;;
66400;SDS011;53211;45.040;38.788;2022-11-12T14:21:14;599.30;;;201.90;;
66400;SDS011;53211;45.040;38.788;2022-11-12T14:24:08;599.15;;;203.90;;
66400;SDS011;53211;45.040;38.788;2022-11-12T14:26:55;606.45;;;196.40;;
66400;SDS011;53211;45.040;38.788;2022-11-12T14:29:42;597.50;;;195.70;;
66400;SDS011;53211;45.040;38.788;2022-11-12T14:32:36;594.70;;;200.50;;
66400;SDS011;53211;45.040;38.788;2022-11-12T14:35:26;594.90;;;204.40;;
66400;SDS011;53211;45.040;38.788;2022-11-12T14:38:32;595.05;;;201.85;;
66400;SDS011;53211;45.040;38.788;2022-11-12T14:44:09;595.10;;;200.75;;
66400;SDS011;53211;45.040;38.788;2022-11-12T14:47:07;594.30;;;202.70;;
66400;SDS011;53211;45.040;38.788;2022-11-12T14:49:52;589.50;;;200.60;;
66400;SDS011;53211;45.040;38.788;2022-11-12T14:52:39;597.05;;;202.35;;
66400;SDS011;53211;45.040;38.788;2022-11-12T14:55:31;585.10;;;207.95;;
66400;SDS011;53211;45.040;38.788;2022-11-12T14:58:19;583.10;;;216.07;;
66400;SDS011;53211;45.040;38.788;2022-11-12T15:01:22;579.65;;;216.25;;
66400;SDS011;53211;45.040;38.788;2022-11-12T15:07:04;608.70;;;194.00;;
66400;SDS011;53211;45.040;38.788;2022-11-12T15:09:49;580.70;;;218.20;;
66400;SDS011;53211;45.040;38.788;2022-11-12T15:12:33;586.45;;;222.80;;
66400;SDS011;53211;45.040;38.788;2022-11-12T15:15:19;586.40;;;220.13;;
66400;SDS011;53211;45.040;38.788;2022-11-12T15:18:14;583.05;;;215.90;;
66400;SDS011;53211;45.040;38.788;2022-11-12T15:24:03;581.95;;;215.95;;
66400;SDS011;53211;45.040;38.788;2022-11-12T15:26:59;584.50;;;217.90;;
66400;SDS011;53211;45.040;38.788;2022-11-12T15:29:45;585.60;;;210.13;;
66400;SDS011;53211;45.040;38.788;2022-11-12T15:32:30;588.85;;;208.95;;
66400;SDS011;53211;45.040;38.788;2022-11-12T15:38:22;583.90;;;215.00;;
66400;SDS011;53211;45.040;38.788;2022-11-12T15:41:17;581.20;;;214.90;;
66400;SDS011;53211;45.040;38.788;2022-11-12T15:44:12;583.95;;;204.30;;
66400;SDS011;53211;45.040;38.788;2022-11-12T15:46:57;584.60;;;206.40;;
66400;SDS011;53211;45.040;38.788;2022-11-12T15:49:57;590.95;;;205.90;;
66400;SDS011;53211;45.040;38.788;2022-11-12T15:52:42;617.83;;;185.30;;
66400;SDS011;53211;45.040;38.788;2022-11-12T15:55:27;562.27;;;234.43;;
66400;SDS011;53211;45.040;38.788;2022-11-12T15:58:16;559.70;;;239.60;;
66400;SDS011;53211;45.040;38.788;2022-11-12T16:01:03;565.80;;;221.00;;
66400;SDS011;53211;45.040;38.788;2022-11-12T16:03:48;571.30;;;228.05;;
66400;SDS011;53211;45.040;38.788;2022-11-12T16:06:32;594.75;;;197.05;;
66400;SDS011;53211;45.040;38.788;2022-11-12T16:09:16;604.60;;;195.05;;
66400;SDS011;53211;45.040;38.788;2022-11-12T16:12:01;590.70;;;207.15;;
66400;SDS011;53211;45.040;38.788;2022-11-12T16:14:45;571.65;;;222.60;;
66400;SDS011;53211;45.040;38.788;2022-11-12T16:17:29;567.83;;;224.73;;
66400;SDS011;53211;45.040;38.788;2022-11-12T16:20:18;575.60;;;220.00;;
66400;SDS011;53211;45.040;38.788;2022-11-12T16:23:11;559.40;;;231.90;;
66400;SDS011;53211;45.040;38.788;2022-11-12T16:25:56;559.80;;;232.30;;
66400;SDS011;53211;45.040;38.788;2022-11-12T16:28:40;562.35;;;227.80;;
66400;SDS011;53211;45.040;38.788;2022-11-12T16:31:26;571.25;;;219.25;;
66400;SDS011;53211;45.040;38.788;2022-11-12T16:34:10;573.55;;;214.45;;
66400;SDS011;53211;45.040;38.788;2022-11-12T16:36:55;557.83;;;233.23;;
66400;SDS011;53211;45.040;38.788;2022-11-12T16:39:40;564.85;;;215.60;;
66400;SDS011;53211;45.040;38.788;2022-11-12T16:42:24;560.35;;;211.80;;
66400;SDS011;53211;45.040;38.788;2022-11-12T16:45:09;570.80;;;222.50;;
66400;SDS011;53211;45.040;38.788;2022-11-12T16:47:54;561.95;;;232.40;;
66400;SDS011;53211;45.040;38.788;2022-11-12T16:50:38;561.83;;;224.90;;
66400;SDS011;53211;45.040;38.788;2022-11-12T16:53:22;561.55;;;232.80;;
66400;SDS011;53211;45.040;38.788;2022-11-12T16:56:15;565.20;;;232.50;;
66400;SDS011;53211;45.040;38.788;2022-11-12T16:59:01;605.80;;;189.80;;
66400;SDS011;53211;45.040;38.788;2022-11-12T17:01:47;555.73;;;238.13;;
66400;SDS011;53211;45.040;38.788;2022-11-12T17:04:31;601.85;;;224.40;;
66400;SDS011;53211;45.040;38.788;2022-11-12T17:07:16;588.03;;;208.53;;
66400;SDS011;53211;45.040;38.788;2022-11-12T17:10:00;557.60;;;237.35;;
66400;SDS011;53211;45.040;38.788;2022-11-12T17:12:46;597.10;;;199.15;;
66400;SDS011;53211;45.040;38.788;2022-11-12T17:15:31;554.38;;;229.45;;
66400;SDS011;53211;45.040;38.788;2022-11-12T17:18:16;605.45;;;188.35;;
66400;SDS011;53211;45.040;38.788;2022-11-12T17:21:08;577.95;;;211.15;;
66400;SDS011;53211;45.040;38.788;2022-11-12T17:23:55;586.47;;;206.50;;
66400;SDS011;53211;45.040;38.788;2022-11-12T17:26:40;580.85;;;218.00;;